createdAt,value
2019-02-23T00:00:29.011Z,20.80
2019-02-23T00:01:29.180Z,20.60
2019-02-23T00:02:29.348Z,20.90
2019-02-23T00:03:29.516Z,20.50
2019-02-23T00:04:29.687Z,20.90
2019-02-23T00:05:29.850Z,20.90
2019-02-23T00:06:30.345Z,20.80
2019-02-23T00:07:30.195Z,21.10
2019-02-23T00:08:30.379Z,19.30
2019-02-23T00:09:30.623Z,19.40
2019-02-23T00:10:30.704Z,20.40
2019-02-23T00:11:30.877Z,20.10
2019-02-23T00:12:31.050Z,20.60
2019-02-23T00:13:31.221Z,20.10
2019-02-23T00:14:31.403Z,18.80
2019-02-23T00:15:31.575Z,19.20
2019-02-23T00:16:31.740Z,18.80
2019-02-23T00:17:31.907Z,19.40
2019-02-23T00:18:32.080Z,18.20
2019-02-23T00:19:32.253Z,18.90
2019-02-23T00:20:32.423Z,18.30
2019-02-23T00:21:32.601Z,18.10
2019-02-23T00:22:32.765Z,17.50
2019-02-23T00:23:32.935Z,17.90
2019-02-23T00:24:33.108Z,17.80
2019-02-23T00:25:33.289Z,17.70
2019-02-23T00:26:33.457Z,16.90
2019-02-23T00:27:33.622Z,17.50
2019-02-23T00:28:33.795Z,18.10
2019-02-23T00:29:33.967Z,18.00
2019-02-23T00:30:34.143Z,17.60
2019-02-23T00:31:34.307Z,17.90
2019-02-23T00:32:34.486Z,17.70
2019-02-23T00:33:34.669Z,17.30
2019-02-23T00:34:34.848Z,17.30
2019-02-23T00:35:35.007Z,17.80
2019-02-23T00:36:35.178Z,17.80
2019-02-23T00:37:35.349Z,17.10
2019-02-23T00:38:35.521Z,18.00
2019-02-23T00:39:35.692Z,17.30
2019-02-23T00:40:35.873Z,18.00
2019-02-23T00:41:36.040Z,17.40
2019-02-23T00:42:36.219Z,18.80
2019-02-23T00:43:36.380Z,19.10
2019-02-23T00:44:36.554Z,18.50
2019-02-23T00:45:36.721Z,18.20
2019-02-23T00:46:36.890Z,18.10
2019-02-23T00:47:37.059Z,18.40
2019-02-23T00:48:37.254Z,19.10
2019-02-23T00:49:37.423Z,18.10
2019-02-23T00:50:37.573Z,18.50
2019-02-23T00:51:37.753Z,19.80
2019-02-23T00:52:37.917Z,18.90
2019-02-23T00:53:38.088Z,18.30
2019-02-23T00:54:38.258Z,19.10
2019-02-23T00:55:38.428Z,18.40
2019-02-23T00:56:38.601Z,19.20
2019-02-23T00:57:38.771Z,19.50
2019-02-23T00:58:38.938Z,19.70
2019-02-23T00:59:39.113Z,18.30
2019-02-23T01:00:39.276Z,19.10
2019-02-23T01:01:39.448Z,19.00
2019-02-23T01:02:39.624Z,19.60
2019-02-23T01:03:39.790Z,20.40
2019-02-23T01:04:39.999Z,19.90
2019-02-23T01:05:40.130Z,19.50
2019-02-23T01:06:40.299Z,19.50
2019-02-23T01:07:40.470Z,19.30
2019-02-23T01:08:40.645Z,19.70
2019-02-23T01:09:40.839Z,19.70
2019-02-23T01:10:40.981Z,19.60
2019-02-23T01:11:41.150Z,20.10
2019-02-23T01:12:41.326Z,19.10
2019-02-23T01:13:41.513Z,18.60
2019-02-23T01:14:41.671Z,19.60
2019-02-23T01:15:41.831Z,19.50
2019-02-23T01:16:42.010Z,20.00
2019-02-23T01:17:42.166Z,20.60
2019-02-23T01:18:42.344Z,20.00
2019-02-23T01:19:47.884Z,19.70
2019-02-23T01:20:42.680Z,19.40
2019-02-23T01:21:42.854Z,20.50
2019-02-23T01:22:43.025Z,19.60
2019-02-23T01:23:43.193Z,20.40
2019-02-23T01:24:43.373Z,21.00
2019-02-23T01:25:43.541Z,20.70
2019-02-23T01:26:43.703Z,20.00
2019-02-23T01:27:43.877Z,19.90
2019-02-23T01:28:44.044Z,20.70
2019-02-23T01:29:44.219Z,21.30
2019-02-23T01:30:44.388Z,21.00
2019-02-23T01:31:44.560Z,20.70
2019-02-23T01:32:44.730Z,20.80
2019-02-23T01:33:44.907Z,20.40
2019-02-23T01:34:45.079Z,20.20
2019-02-23T01:35:45.242Z,21.20
2019-02-23T01:36:45.408Z,20.70
2019-02-23T01:37:45.580Z,20.90
2019-02-23T01:38:45.751Z,21.00
2019-02-23T01:39:45.928Z,20.50
2019-02-23T01:40:46.089Z,21.40
2019-02-23T01:41:46.330Z,20.10
2019-02-23T01:42:46.427Z,20.50
2019-02-23T01:43:46.607Z,20.20
2019-02-23T01:44:46.766Z,21.60
2019-02-23T01:45:46.942Z,21.30
2019-02-23T01:46:47.113Z,20.80
2019-02-23T01:47:47.299Z,20.50
2019-02-23T01:48:47.470Z,21.10
2019-02-23T01:49:58.322Z,20.60
2019-02-23T01:50:47.895Z,21.30
2019-02-23T01:51:47.982Z,20.90
2019-02-23T01:52:48.152Z,21.80
2019-02-23T01:53:48.331Z,21.60
2019-02-23T01:54:48.496Z,20.80
2019-02-23T01:55:48.667Z,21.40
2019-02-23T01:56:48.831Z,21.00
2019-02-23T01:57:49.002Z,21.70
2019-02-23T01:58:49.177Z,21.90
2019-02-23T01:59:49.352Z,22.00
2019-02-23T02:00:49.513Z,20.70
2019-02-23T02:01:49.685Z,21.00
2019-02-23T02:02:49.858Z,21.10
2019-02-23T02:03:50.025Z,21.60
2019-02-23T02:04:50.195Z,22.10
2019-02-23T02:05:50.370Z,21.70
2019-02-23T02:06:50.547Z,22.30
2019-02-23T02:07:50.715Z,21.60
2019-02-23T02:08:50.887Z,22.80
2019-02-23T02:09:51.047Z,22.10
2019-02-23T02:10:51.225Z,23.40
2019-02-23T02:11:51.386Z,23.00
2019-02-23T02:12:51.557Z,22.20
2019-02-23T02:13:51.733Z,22.30
2019-02-23T02:14:51.902Z,22.30
2019-02-23T02:15:52.072Z,22.90
2019-02-23T02:16:52.241Z,23.00
2019-02-23T02:17:52.412Z,21.70
2019-02-23T02:18:52.583Z,23.20
2019-02-23T02:19:52.758Z,22.10
2019-02-23T02:20:52.923Z,22.80
2019-02-23T02:21:53.102Z,22.90
2019-02-23T02:22:53.258Z,21.90
2019-02-23T02:23:53.431Z,23.10
2019-02-23T02:24:53.601Z,21.70
2019-02-23T02:25:53.766Z,22.60
2019-02-23T02:26:53.936Z,22.70
2019-02-23T02:27:54.106Z,23.20
2019-02-23T02:28:54.277Z,23.60
2019-02-23T02:29:54.447Z,24.30
2019-02-23T02:30:54.617Z,23.00
2019-02-23T02:31:54.786Z,24.60
2019-02-23T02:32:54.957Z,23.10
2019-02-23T02:33:55.126Z,23.90
2019-02-23T02:34:55.299Z,23.70
2019-02-23T02:35:55.465Z,24.00
2019-02-23T02:36:55.635Z,24.10
2019-02-23T02:37:55.808Z,23.40
2019-02-23T02:38:55.978Z,23.00
2019-02-23T02:39:56.159Z,24.60
2019-02-23T02:40:56.323Z,23.70
2019-02-23T02:41:56.490Z,23.90
2019-02-23T02:42:56.661Z,24.50
2019-02-23T02:43:56.837Z,24.30
2019-02-23T02:44:57.004Z,24.90
2019-02-23T02:45:57.174Z,23.50
2019-02-23T02:46:57.345Z,24.40
2019-02-23T02:47:57.514Z,24.80
2019-02-23T02:48:57.683Z,24.10
2019-02-23T02:49:57.851Z,24.60
2019-02-23T02:50:58.020Z,24.30
2019-02-23T02:51:58.185Z,24.60
2019-02-23T02:52:58.367Z,24.40
2019-02-23T02:53:58.530Z,25.20
2019-02-23T02:54:58.698Z,24.70
2019-02-23T02:55:58.866Z,24.50
2019-02-23T02:56:59.035Z,24.50
2019-02-23T02:57:59.206Z,24.60
2019-02-23T02:58:59.374Z,24.30
2019-02-23T02:59:59.539Z,25.80
2019-02-23T03:00:59.718Z,25.40
2019-02-23T03:01:59.889Z,25.40
2019-02-23T03:03:00.062Z,25.20
2019-02-23T03:04:00.231Z,24.80
2019-02-23T03:05:00.578Z,25.00
2019-02-23T03:06:00.566Z,24.60
2019-02-23T03:07:00.743Z,25.00
2019-02-23T03:08:00.915Z,26.00
2019-02-23T03:09:01.084Z,24.90
2019-02-23T03:10:01.267Z,26.10
2019-02-23T03:11:01.437Z,24.80
2019-02-23T03:12:01.598Z,25.20
2019-02-23T03:13:01.765Z,26.80
2019-02-23T03:14:01.935Z,25.40
2019-02-23T03:15:02.114Z,24.90
2019-02-23T03:16:02.278Z,25.00
2019-02-23T03:17:02.450Z,25.40
2019-02-23T03:18:02.620Z,25.70
2019-02-23T03:19:02.791Z,25.30
2019-02-23T03:20:02.962Z,25.30
2019-02-23T03:21:03.130Z,25.10
2019-02-23T03:22:03.301Z,25.00
2019-02-23T03:23:03.475Z,25.00
2019-02-23T03:24:03.643Z,26.20
2019-02-23T03:25:03.811Z,24.90
2019-02-23T03:26:03.992Z,25.40
2019-02-23T03:27:04.156Z,25.10
2019-02-23T03:28:04.329Z,26.20
2019-02-23T03:29:04.494Z,25.60
2019-02-23T03:30:04.665Z,24.90
2019-02-23T03:31:04.834Z,25.70
2019-02-23T03:32:05.007Z,24.60
2019-02-23T03:33:05.236Z,26.20
2019-02-23T03:34:05.354Z,25.90
2019-02-23T03:35:05.515Z,26.40
2019-02-23T03:36:05.685Z,26.20
2019-02-23T03:37:05.857Z,24.90
2019-02-23T03:38:06.030Z,26.00
2019-02-23T03:39:06.202Z,26.50
2019-02-23T03:40:06.371Z,26.40
2019-02-23T03:41:06.540Z,26.30
2019-02-23T03:42:06.711Z,26.60
2019-02-23T03:43:06.883Z,25.40
2019-02-23T03:44:07.052Z,25.90
2019-02-23T03:45:07.222Z,26.00
2019-02-23T03:46:07.391Z,26.10
2019-02-23T03:47:07.569Z,26.30
2019-02-23T03:48:07.733Z,25.90
2019-02-23T03:49:07.904Z,26.10
2019-02-23T03:50:08.091Z,25.50
2019-02-23T03:51:08.245Z,25.80
2019-02-23T03:52:08.415Z,26.50
2019-02-23T03:53:08.578Z,27.30
2019-02-23T03:54:08.757Z,26.70
2019-02-23T03:55:08.924Z,26.40
2019-02-23T03:56:09.089Z,26.40
2019-02-23T03:57:09.266Z,26.80
2019-02-23T03:58:09.432Z,26.90
2019-02-23T03:59:09.603Z,25.70
2019-02-23T04:00:09.772Z,27.00
2019-02-23T04:01:09.953Z,25.80
2019-02-23T04:02:10.120Z,25.80
2019-02-23T04:03:10.279Z,26.10
2019-02-23T04:04:10.452Z,26.50
2019-02-23T04:05:10.621Z,26.80
2019-02-23T04:06:10.794Z,25.40
2019-02-23T04:07:10.963Z,25.30
2019-02-23T04:08:11.128Z,25.40
2019-02-23T04:09:11.301Z,26.30
2019-02-23T04:10:11.472Z,26.90
2019-02-23T04:11:11.643Z,26.20
2019-02-23T04:12:11.814Z,25.50
2019-02-23T04:13:11.987Z,25.80
2019-02-23T04:14:12.157Z,25.60
2019-02-23T04:15:12.328Z,26.40
2019-02-23T04:16:12.506Z,25.60
2019-02-23T04:17:12.669Z,26.60
2019-02-23T04:18:12.835Z,25.60
2019-02-23T04:19:13.012Z,25.70
2019-02-23T04:20:13.182Z,26.30
2019-02-23T04:21:13.354Z,24.30
2019-02-23T04:22:13.522Z,25.70
2019-02-23T04:23:13.693Z,24.60
2019-02-23T04:24:13.876Z,24.60
2019-02-23T04:25:14.039Z,26.30
2019-02-23T04:26:14.217Z,26.70
2019-02-23T04:27:14.389Z,26.50
2019-02-23T04:28:14.552Z,25.30
2019-02-23T04:29:14.745Z,26.30
2019-02-23T04:30:14.903Z,25.50
2019-02-23T04:31:15.058Z,25.60
2019-02-23T04:32:15.228Z,25.30
2019-02-23T04:33:15.400Z,26.10
2019-02-23T04:34:15.576Z,26.30
2019-02-23T04:35:15.750Z,26.00
2019-02-23T04:36:15.914Z,25.20
2019-02-23T04:37:16.083Z,25.50
2019-02-23T04:38:16.264Z,25.90
2019-02-23T04:39:16.426Z,25.60
2019-02-23T04:40:16.598Z,26.50
2019-02-23T04:41:16.772Z,25.50
2019-02-23T04:42:16.944Z,25.70
2019-02-23T04:43:17.108Z,24.60
2019-02-23T04:44:17.284Z,26.20
2019-02-23T04:45:17.456Z,25.60
2019-02-23T04:46:17.624Z,25.20
2019-02-23T04:47:17.793Z,25.80
2019-02-23T04:48:17.960Z,26.30
2019-02-23T04:49:18.135Z,27.00
2019-02-23T04:50:18.323Z,25.60
2019-02-23T04:51:18.476Z,26.10
2019-02-23T04:52:18.645Z,26.90
2019-02-23T04:53:18.815Z,26.60
2019-02-23T04:54:18.982Z,27.30
2019-02-23T04:55:19.170Z,25.90
2019-02-23T04:56:19.322Z,26.90
2019-02-23T04:57:19.496Z,26.30
2019-02-23T04:58:19.666Z,26.00
2019-02-23T04:59:19.842Z,28.00
2019-02-23T05:00:20.010Z,26.50
2019-02-23T05:01:20.183Z,26.50
2019-02-23T05:02:20.351Z,25.30
2019-02-23T05:03:20.523Z,26.00
2019-02-23T05:04:20.694Z,26.60
2019-02-23T05:05:20.861Z,26.90
2019-02-23T05:06:21.032Z,26.20
2019-02-23T05:07:21.205Z,25.70
2019-02-23T05:08:21.377Z,26.40
2019-02-23T05:09:21.538Z,26.70
2019-02-23T05:10:21.708Z,26.40
2019-02-23T05:11:21.878Z,26.60
2019-02-23T05:12:22.048Z,25.80
2019-02-23T05:13:22.230Z,26.50
2019-02-23T05:14:22.387Z,26.30
2019-02-23T05:15:22.551Z,26.20
2019-02-23T05:16:22.724Z,25.80
2019-02-23T05:17:22.896Z,25.70
2019-02-23T05:18:23.074Z,26.40
2019-02-23T05:19:23.233Z,25.50
2019-02-23T05:20:23.404Z,25.70
2019-02-23T05:21:26.760Z,26.00
2019-02-23T05:22:23.746Z,25.50
2019-02-23T05:23:23.915Z,25.70
2019-02-23T05:24:24.085Z,25.50
2019-02-23T05:25:24.254Z,25.50
2019-02-23T05:26:24.430Z,25.60
2019-02-23T05:27:24.592Z,26.80
2019-02-23T05:28:24.768Z,25.80
2019-02-23T05:29:24.930Z,26.50
2019-02-23T05:30:25.126Z,26.10
2019-02-23T05:31:25.340Z,26.90
2019-02-23T05:32:25.440Z,26.20
2019-02-23T05:33:25.612Z,25.60
2019-02-23T05:34:25.785Z,24.80
2019-02-23T05:35:25.953Z,27.00
2019-02-23T05:36:26.122Z,25.70
2019-02-23T05:37:26.301Z,26.50
2019-02-23T05:38:26.461Z,25.30
2019-02-23T05:39:26.629Z,25.40
2019-02-23T05:40:26.803Z,26.50
2019-02-23T05:41:26.973Z,27.00
2019-02-23T05:42:27.153Z,26.00
2019-02-23T05:43:27.316Z,25.60
2019-02-23T05:44:27.482Z,26.20
2019-02-23T05:45:27.655Z,25.60
2019-02-23T05:46:27.828Z,25.40
2019-02-23T05:47:28.002Z,26.60
2019-02-23T05:48:28.170Z,26.00
2019-02-23T05:49:28.352Z,25.70
2019-02-23T05:50:28.509Z,26.30
2019-02-23T05:51:38.416Z,26.70
2019-02-23T05:52:28.848Z,26.10
2019-02-23T05:53:29.018Z,27.30
2019-02-23T05:54:29.188Z,25.70
2019-02-23T05:55:29.360Z,25.10
2019-02-23T05:56:29.528Z,26.20
2019-02-23T05:57:29.694Z,26.80
2019-02-23T05:58:29.866Z,25.60
2019-02-23T05:59:30.039Z,25.90
2019-02-23T06:00:30.202Z,26.20
2019-02-23T06:01:30.374Z,25.30
2019-02-23T06:02:30.552Z,24.50
2019-02-23T06:03:30.716Z,26.70
2019-02-23T06:04:30.890Z,26.90
2019-02-23T06:05:31.057Z,26.10
2019-02-23T06:06:31.227Z,26.10
2019-02-23T06:07:31.399Z,26.10
2019-02-23T06:08:31.567Z,27.00
2019-02-23T06:09:31.742Z,27.10
2019-02-23T06:10:31.903Z,26.80
2019-02-23T06:11:32.086Z,26.80
2019-02-23T06:12:32.251Z,27.70
2019-02-23T06:13:32.423Z,26.80
2019-02-23T06:14:32.593Z,27.00
2019-02-23T06:15:32.755Z,27.40
2019-02-23T06:16:32.925Z,26.60
2019-02-23T06:17:33.103Z,27.10
2019-02-23T06:18:33.268Z,27.00
2019-02-23T06:19:33.435Z,27.30
2019-02-23T06:20:33.613Z,28.00
2019-02-23T06:21:33.771Z,27.50
2019-02-23T06:22:33.948Z,28.20
2019-02-23T06:23:34.128Z,26.10
2019-02-23T06:24:34.274Z,26.90
2019-02-23T06:25:34.453Z,27.90
2019-02-23T06:26:34.622Z,26.20
2019-02-23T06:27:34.786Z,26.20
2019-02-23T06:28:34.959Z,27.70
2019-02-23T06:29:35.125Z,27.20
2019-02-23T06:30:35.295Z,27.00
2019-02-23T06:31:35.483Z,27.90
2019-02-23T06:32:35.635Z,25.90
2019-02-23T06:33:35.802Z,27.50
2019-02-23T06:34:35.978Z,27.40
2019-02-23T06:35:36.144Z,27.00
2019-02-23T06:36:36.315Z,27.00
2019-02-23T06:37:36.486Z,26.90
2019-02-23T06:38:36.656Z,26.50
2019-02-23T06:39:36.822Z,26.30
2019-02-23T06:40:36.995Z,26.10
2019-02-23T06:41:37.204Z,26.60
2019-02-23T06:42:37.332Z,26.70
2019-02-23T06:43:37.504Z,27.10
2019-02-23T06:44:37.674Z,26.70
2019-02-23T06:45:37.844Z,25.30
2019-02-23T06:46:38.019Z,26.80
2019-02-23T06:47:38.192Z,26.50
2019-02-23T06:48:38.350Z,26.80
2019-02-23T06:49:38.524Z,26.20
2019-02-23T06:50:38.711Z,26.80
2019-02-23T06:51:38.883Z,26.30
2019-02-23T06:52:39.038Z,26.60
2019-02-23T06:53:39.205Z,27.30
2019-02-23T06:54:39.376Z,27.60
2019-02-23T06:55:39.553Z,27.10
2019-02-23T06:56:39.717Z,26.90
2019-02-23T06:57:39.896Z,27.30
2019-02-23T06:58:40.059Z,27.30
2019-02-23T06:59:40.234Z,26.70
2019-02-23T07:00:40.401Z,26.10
2019-02-23T07:01:40.570Z,27.20
2019-02-23T07:02:40.769Z,27.60
2019-02-23T07:03:40.912Z,26.80
2019-02-23T07:04:41.090Z,27.10
2019-02-23T07:05:41.270Z,26.30
2019-02-23T07:06:41.430Z,25.80
2019-02-23T07:07:41.599Z,26.90
2019-02-23T07:08:41.766Z,26.50
2019-02-23T07:09:42.132Z,26.40
2019-02-23T07:10:42.099Z,25.60
2019-02-23T07:11:42.272Z,25.80
2019-02-23T07:12:42.433Z,26.20
2019-02-23T07:13:42.612Z,26.10
2019-02-23T07:14:42.773Z,25.60
2019-02-23T07:15:42.945Z,25.70
2019-02-23T07:16:43.120Z,25.70
2019-02-23T07:17:43.289Z,25.70
2019-02-23T07:18:43.463Z,25.40
2019-02-23T07:19:43.670Z,25.30
2019-02-23T07:20:44.679Z,26.20
2019-02-23T07:21:43.961Z,27.40
2019-02-23T07:22:44.133Z,26.60
2019-02-23T07:23:44.303Z,26.30
2019-02-23T07:24:44.475Z,24.70
2019-02-23T07:25:44.657Z,25.20
2019-02-23T07:26:46.652Z,24.70
2019-02-23T07:27:45.150Z,25.40
2019-02-23T07:28:45.096Z,25.90
2019-02-23T07:29:45.398Z,25.90
2019-02-23T07:30:45.426Z,25.70
2019-02-23T07:31:45.581Z,25.20
2019-02-23T07:32:45.755Z,25.50
2019-02-23T07:33:45.932Z,26.00
2019-02-23T07:34:46.102Z,24.80
2019-02-23T07:35:46.267Z,26.00
2019-02-23T07:36:46.439Z,25.30
2019-02-23T07:37:46.613Z,24.60
2019-02-23T07:38:46.781Z,26.10
2019-02-23T07:39:46.968Z,25.10
2019-02-23T07:40:47.149Z,24.60
2019-02-23T07:41:47.311Z,24.90
2019-02-23T07:42:47.479Z,24.00
2019-02-23T07:43:47.647Z,25.20
2019-02-23T07:44:47.819Z,24.70
2019-02-23T07:45:47.994Z,24.20
2019-02-23T07:46:48.166Z,24.50
2019-02-23T07:47:48.340Z,23.80
2019-02-23T07:48:48.507Z,24.70
2019-02-23T07:49:48.684Z,24.70
2019-02-23T07:50:48.852Z,23.10
2019-02-23T07:51:49.028Z,23.40
2019-02-23T07:52:49.199Z,23.60
2019-02-23T07:53:49.369Z,23.50
2019-02-23T07:54:49.545Z,22.50
2019-02-23T07:55:49.716Z,23.60
2019-02-23T07:56:49.888Z,23.90
2019-02-23T07:57:50.063Z,23.00
2019-02-23T07:58:50.235Z,22.50
2019-02-23T07:59:50.408Z,23.20
2019-02-23T08:00:50.581Z,21.90
2019-02-23T08:01:50.765Z,21.30
2019-02-23T08:02:50.928Z,22.50
2019-02-23T08:03:51.100Z,22.50
2019-02-23T08:04:51.285Z,22.50
2019-02-23T08:05:51.444Z,21.70
2019-02-23T08:06:51.624Z,21.70
2019-02-23T08:07:52.125Z,21.80
2019-02-23T08:08:52.001Z,20.90
2019-02-23T08:09:52.155Z,21.10
2019-02-23T08:10:52.327Z,20.90
2019-02-23T08:11:52.501Z,20.50
2019-02-23T08:12:52.673Z,21.00
2019-02-23T08:13:52.854Z,20.70
2019-02-23T08:14:53.020Z,21.20
2019-02-23T08:15:53.199Z,21.90
2019-02-23T08:16:53.379Z,21.00
2019-02-23T08:17:53.544Z,20.20
2019-02-23T08:18:53.712Z,21.70
2019-02-23T08:19:53.910Z,21.40
2019-02-23T08:20:54.072Z,21.10
2019-02-23T08:21:54.249Z,21.30
2019-02-23T08:22:54.407Z,21.50
2019-02-23T08:23:54.580Z,21.30
2019-02-23T08:24:54.755Z,22.20
2019-02-23T08:25:54.931Z,20.90
2019-02-23T08:26:55.105Z,20.30
2019-02-23T08:27:55.278Z,20.90
2019-02-23T08:28:55.467Z,21.30
2019-02-23T08:29:55.632Z,21.20
2019-02-23T08:30:55.802Z,20.90
2019-02-23T08:31:55.973Z,19.60
2019-02-23T08:32:56.149Z,20.30
2019-02-23T08:33:56.321Z,20.60
2019-02-23T08:34:56.494Z,19.80
2019-02-23T08:35:56.670Z,20.50
2019-02-23T08:36:56.847Z,20.60
2019-02-23T08:37:57.020Z,19.60
2019-02-23T08:38:57.213Z,20.00
2019-02-23T08:39:57.372Z,19.30
2019-02-23T08:40:57.544Z,19.90
2019-02-23T08:41:57.723Z,19.20
2019-02-23T08:42:57.894Z,20.10
2019-02-23T08:43:58.077Z,19.90
2019-02-23T08:44:58.244Z,20.30
2019-02-23T08:45:58.419Z,20.60
2019-02-23T08:46:58.600Z,19.40
2019-02-23T08:47:58.784Z,19.20
2019-02-23T08:48:58.948Z,19.30
2019-02-23T08:49:59.125Z,19.80
2019-02-23T08:50:59.298Z,19.20
2019-02-23T08:51:59.479Z,19.50
2019-02-23T08:52:59.659Z,19.30
2019-02-23T08:53:59.835Z,19.50
2019-02-23T08:55:00.010Z,17.70
2019-02-23T08:56:00.179Z,17.70
2019-02-23T08:57:00.354Z,19.40
2019-02-23T08:58:00.526Z,18.50
2019-02-23T08:59:00.706Z,17.00
2019-02-23T09:00:00.883Z,17.60
2019-02-23T09:01:01.059Z,19.10
2019-02-23T09:02:01.233Z,17.80
2019-02-23T09:03:01.411Z,17.70
2019-02-23T09:04:01.587Z,17.60
2019-02-23T09:05:01.769Z,17.20
2019-02-23T09:06:01.938Z,18.30
2019-02-23T09:07:02.116Z,18.10
2019-02-23T09:08:02.292Z,18.10
2019-02-23T09:09:02.473Z,17.70
2019-02-23T09:10:02.654Z,17.60
2019-02-23T09:11:02.824Z,17.70
2019-02-23T09:12:02.994Z,16.50
2019-02-23T09:13:03.176Z,16.70
2019-02-23T09:14:03.352Z,17.20
2019-02-23T09:15:03.528Z,15.50
2019-02-23T09:16:03.732Z,15.30
2019-02-23T09:17:03.876Z,16.10
2019-02-23T09:18:04.068Z,15.80
2019-02-23T09:19:04.234Z,14.70
2019-02-23T09:20:04.590Z,15.80
2019-02-23T09:21:04.568Z,15.70
2019-02-23T09:22:04.743Z,15.70
2019-02-23T09:23:04.930Z,18.20
2019-02-23T09:24:05.099Z,16.70
2019-02-23T09:25:05.521Z,15.00
2019-02-23T09:26:05.463Z,14.30
2019-02-23T09:27:05.632Z,15.70
2019-02-23T09:28:05.811Z,15.80
2019-02-23T09:29:05.989Z,15.10
2019-02-23T09:30:06.164Z,13.90
2019-02-23T09:31:06.339Z,13.90
2019-02-23T09:32:06.517Z,13.00
2019-02-23T09:33:06.704Z,13.30
2019-02-23T09:34:06.879Z,13.40
2019-02-23T09:35:07.040Z,13.30
2019-02-23T09:36:07.224Z,13.20
2019-02-23T09:37:07.404Z,13.00
2019-02-23T09:38:07.585Z,12.70
2019-02-23T09:39:07.756Z,13.00
2019-02-23T09:40:07.937Z,13.00
2019-02-23T09:41:08.106Z,14.00
2019-02-23T09:42:08.286Z,13.30
2019-02-23T09:43:08.448Z,13.30
2019-02-23T09:44:08.620Z,13.10
2019-02-23T09:45:08.799Z,13.50
2019-02-23T09:46:08.975Z,13.30
2019-02-23T09:47:09.150Z,12.70
2019-02-23T09:48:09.336Z,13.40
2019-02-23T09:49:09.505Z,13.00
2019-02-23T09:50:09.691Z,12.40
2019-02-23T09:51:09.878Z,12.50
2019-02-23T09:52:10.040Z,11.70
2019-02-23T09:53:11.452Z,11.60
2019-02-23T09:54:10.396Z,12.00
2019-02-23T09:55:10.584Z,11.70
2019-02-23T09:56:10.752Z,11.00
2019-02-23T09:57:10.929Z,11.40
2019-02-23T09:58:11.107Z,11.20
2019-02-23T09:59:11.297Z,11.60
2019-02-23T10:00:11.476Z,12.30
2019-02-23T10:01:11.640Z,12.90
2019-02-23T10:02:11.824Z,12.30
2019-02-23T10:03:11.994Z,13.90
2019-02-23T10:04:12.178Z,12.70
2019-02-23T10:05:12.346Z,11.30
2019-02-23T10:06:12.522Z,11.50
2019-02-23T10:07:12.698Z,12.30
2019-02-23T10:08:12.883Z,11.20
2019-02-23T10:09:13.059Z,11.20
2019-02-23T10:10:13.238Z,12.70
2019-02-23T10:11:13.414Z,11.80
2019-02-23T10:12:13.599Z,12.40
2019-02-23T10:13:13.769Z,13.20
2019-02-23T10:14:13.947Z,11.90
2019-02-23T10:15:14.135Z,13.00
2019-02-23T10:16:14.303Z,11.40
2019-02-23T10:17:14.485Z,11.50
2019-02-23T10:18:14.667Z,12.40
2019-02-23T10:19:14.846Z,11.10
2019-02-23T10:20:15.015Z,12.20
2019-02-23T10:21:15.190Z,10.90
2019-02-23T10:22:15.372Z,13.80
2019-02-23T10:23:22.185Z,13.10
2019-02-23T10:24:15.729Z,12.60
2019-02-23T10:25:15.903Z,11.00
2019-02-23T10:26:16.088Z,11.90
2019-02-23T10:27:16.263Z,12.20
2019-02-23T10:28:16.439Z,10.50
2019-02-23T10:29:16.620Z,10.10
2019-02-23T10:30:16.807Z,10.10
2019-02-23T10:31:16.981Z,11.10
2019-02-23T10:32:17.166Z,11.80
2019-02-23T10:33:17.343Z,12.90
2019-02-23T10:34:17.511Z,11.60
2019-02-23T10:35:17.690Z,10.70
2019-02-23T10:36:17.868Z,10.30
2019-02-23T10:37:18.045Z,10.20
2019-02-23T10:38:18.230Z,10.40
2019-02-23T10:39:18.409Z,10.40
2019-02-23T10:40:18.576Z,10.10
2019-02-23T10:41:18.772Z,11.30
2019-02-23T10:42:18.951Z,12.80
2019-02-23T10:43:19.131Z,11.50
2019-02-23T10:44:19.309Z,10.30
2019-02-23T10:45:19.487Z,10.30
2019-02-23T10:46:19.666Z,10.80
2019-02-23T10:47:19.850Z,12.00
2019-02-23T10:48:20.020Z,10.20
2019-02-23T10:49:20.203Z,10.30
2019-02-23T10:50:20.383Z,10.70
2019-02-23T10:51:20.562Z,10.70
2019-02-23T10:52:20.741Z,11.00
2019-02-23T10:53:20.921Z,11.10
2019-02-23T10:54:21.096Z,11.50
2019-02-23T10:55:21.275Z,10.10
2019-02-23T10:56:21.449Z,10.30
2019-02-23T10:57:21.633Z,9.60
2019-02-23T10:58:21.821Z,9.50
2019-02-23T10:59:21.989Z,9.60
2019-02-23T11:00:22.201Z,11.10
2019-02-23T11:01:22.390Z,10.50
2019-02-23T11:02:22.568Z,11.10
2019-02-23T11:03:22.753Z,10.70
2019-02-23T11:04:22.927Z,11.00
2019-02-23T11:05:23.117Z,9.60
2019-02-23T11:06:23.294Z,9.60
2019-02-23T11:07:23.457Z,10.70
2019-02-23T11:08:23.636Z,10.70
2019-02-23T11:09:23.809Z,11.00
2019-02-23T11:10:24.000Z,11.20
2019-02-23T11:11:24.169Z,11.90
2019-02-23T11:12:24.335Z,11.10
2019-02-23T11:13:24.529Z,10.40
2019-02-23T11:14:24.706Z,12.80
2019-02-23T11:15:24.887Z,12.20
2019-02-23T11:16:25.064Z,11.60
2019-02-23T11:17:25.258Z,10.60
2019-02-23T11:18:25.428Z,10.00
2019-02-23T11:19:25.615Z,10.70
2019-02-23T11:20:25.783Z,11.80
2019-02-23T11:21:25.951Z,10.80
2019-02-23T11:22:26.126Z,11.20
2019-02-23T11:23:26.320Z,10.90
2019-02-23T11:24:26.593Z,12.60
2019-02-23T11:25:26.667Z,11.60
2019-02-23T11:26:26.849Z,11.10
2019-02-23T11:27:27.026Z,10.90
2019-02-23T11:28:27.203Z,11.10
2019-02-23T11:29:27.388Z,9.80
2019-02-23T11:30:27.558Z,10.20
2019-02-23T11:31:27.742Z,10.20
2019-02-23T11:32:27.917Z,10.90
2019-02-23T11:33:28.103Z,11.00
2019-02-23T11:34:28.281Z,12.00
2019-02-23T11:35:28.468Z,11.30
2019-02-23T11:36:28.640Z,9.90
2019-02-23T11:37:28.829Z,10.20
2019-02-23T11:38:29.013Z,11.60
2019-02-23T11:39:29.176Z,11.10
2019-02-23T11:40:29.346Z,10.90
2019-02-23T11:41:29.527Z,10.50
2019-02-23T11:42:29.705Z,10.50
2019-02-23T11:43:29.882Z,10.00
2019-02-23T11:44:30.072Z,10.70
2019-02-23T11:45:31.027Z,10.50
2019-02-23T11:46:30.415Z,10.50
2019-02-23T11:47:30.591Z,10.50
2019-02-23T11:48:30.777Z,11.40
2019-02-23T11:49:30.953Z,10.00
2019-02-23T11:50:31.128Z,10.10
2019-02-23T11:51:31.315Z,10.80
2019-02-23T11:52:31.500Z,10.00
2019-02-23T11:53:31.675Z,10.00
2019-02-23T11:54:31.850Z,10.10
2019-02-23T11:55:32.027Z,9.90
2019-02-23T11:56:32.209Z,11.20
2019-02-23T11:57:32.387Z,11.80
2019-02-23T11:58:32.566Z,11.00
2019-02-23T11:59:32.749Z,10.20
2019-02-23T12:00:32.929Z,10.60
2019-02-23T12:01:33.108Z,9.60
2019-02-23T12:02:33.291Z,13.70
2019-02-23T12:03:33.470Z,13.20
2019-02-23T12:04:33.658Z,13.20
2019-02-23T12:05:33.831Z,10.90
2019-02-23T12:06:34.018Z,12.80
2019-02-23T12:07:34.205Z,11.20
2019-02-23T12:08:34.374Z,10.20
2019-02-23T12:09:34.554Z,10.60
2019-02-23T12:10:34.741Z,11.30
2019-02-23T12:11:34.907Z,10.00
2019-02-23T12:12:35.095Z,10.70
2019-02-23T12:13:35.274Z,11.40
2019-02-23T12:14:35.464Z,10.80
2019-02-23T12:15:35.642Z,10.80
2019-02-23T12:16:35.810Z,10.20
2019-02-23T12:17:36.001Z,10.20
2019-02-23T12:18:36.167Z,9.40
2019-02-23T12:19:36.348Z,9.70
2019-02-23T12:20:36.528Z,8.70
2019-02-23T12:21:36.707Z,9.20
2019-02-23T12:22:36.889Z,9.60
2019-02-23T12:23:37.063Z,9.70
2019-02-23T12:24:37.254Z,9.00
2019-02-23T12:25:37.439Z,9.90
2019-02-23T12:26:37.608Z,10.70
2019-02-23T12:27:37.792Z,9.80
2019-02-23T12:28:37.989Z,11.00
2019-02-23T12:29:38.157Z,11.10
2019-02-23T12:30:38.328Z,9.80
2019-02-23T12:31:38.511Z,9.80
2019-02-23T12:32:38.690Z,10.10
2019-02-23T12:33:38.935Z,9.10
2019-02-23T12:34:39.046Z,10.60
2019-02-23T12:35:39.222Z,10.20
2019-02-23T12:36:39.404Z,10.00
2019-02-23T12:37:39.583Z,9.20
2019-02-23T12:38:39.763Z,9.40
2019-02-23T12:39:39.960Z,10.90
2019-02-23T12:40:40.740Z,9.40
2019-02-23T12:41:40.295Z,9.40
2019-02-23T12:42:40.474Z,9.10
2019-02-23T12:43:40.663Z,9.30
2019-02-23T12:44:40.832Z,10.00
2019-02-23T12:45:41.027Z,9.80
2019-02-23T12:46:41.201Z,10.00
2019-02-23T12:47:41.362Z,9.50
2019-02-23T12:48:41.542Z,9.30
2019-02-23T12:49:41.719Z,10.60
2019-02-23T12:50:41.902Z,10.60
2019-02-23T12:51:42.079Z,10.70
2019-02-23T12:52:42.253Z,10.60
2019-02-23T12:53:42.435Z,9.00
2019-02-23T12:54:42.610Z,13.20
2019-02-23T12:55:42.798Z,10.50